createdAt,value
2023-03-08T00:00:08.797Z,8.20
2023-03-08T00:01:08.768Z,8.50
2023-03-08T00:02:08.832Z,8.50
2023-03-08T00:03:08.749Z,8.60
2023-03-08T00:04:08.927Z,8.40
2023-03-08T00:05:08.727Z,9.10
2023-03-08T00:06:08.934Z,10.00
2023-03-08T00:07:08.719Z,9.30
2023-03-08T00:08:08.732Z,9.50
2023-03-08T00:09:08.681Z,9.10
2023-03-08T00:10:08.889Z,9.00
2023-03-08T00:11:08.664Z,8.70
2023-03-08T00:12:08.748Z,8.80
2023-03-08T00:13:08.643Z,9.00
2023-03-08T00:14:08.684Z,8.80
2023-03-08T00:15:08.633Z,8.30
2023-03-08T00:16:08.731Z,8.30
2023-03-08T00:17:08.608Z,7.90
2023-03-08T00:18:08.716Z,8.40
2023-03-08T00:19:08.578Z,8.40
2023-03-08T00:20:08.628Z,8.60
2023-03-08T00:21:08.559Z,8.20
2023-03-08T00:22:08.887Z,8.40
2023-03-08T00:23:08.529Z,9.60
2023-03-08T00:24:08.570Z,9.20
2023-03-08T00:25:08.510Z,9.10
2023-03-08T00:26:08.619Z,9.20
2023-03-08T00:27:08.499Z,9.50
2023-03-08T00:28:08.522Z,8.50
2023-03-08T00:29:08.517Z,8.90
2023-03-08T00:30:08.694Z,9.70
2023-03-08T00:31:08.527Z,9.40
2023-03-08T00:32:08.561Z,10.10
2023-03-08T00:33:08.444Z,9.30
2023-03-08T00:34:08.486Z,9.30
2023-03-08T00:35:08.432Z,8.70
2023-03-08T00:36:08.428Z,9.50
2023-03-08T00:37:08.419Z,8.70
2023-03-08T00:38:08.374Z,9.10
2023-03-08T00:39:08.376Z,9.20
2023-03-08T00:40:08.546Z,9.10
2023-03-08T00:41:08.357Z,9.20
2023-03-08T00:42:08.486Z,8.40
2023-03-08T00:43:08.336Z,9.70
2023-03-08T00:44:08.528Z,9.90
2023-03-08T00:45:08.306Z,9.70
2023-03-08T00:46:08.317Z,9.10
2023-03-08T00:47:08.296Z,9.10
2023-03-08T00:48:08.356Z,14.40
2023-03-08T00:49:08.257Z,11.50
2023-03-08T00:50:08.525Z,12.30
2023-03-08T00:51:08.248Z,9.80
2023-03-08T00:52:08.316Z,10.80
2023-03-08T00:53:08.252Z,11.10
2023-03-08T00:54:08.320Z,14.00
2023-03-08T00:55:08.238Z,11.70
2023-03-08T00:56:08.200Z,12.50
2023-03-08T00:57:08.188Z,11.60
2023-03-08T00:58:08.206Z,10.70
2023-03-08T00:59:08.168Z,13.30
2023-03-08T01:00:08.218Z,10.20
2023-03-08T01:01:08.180Z,12.40
2023-03-08T01:02:08.196Z,9.70
2023-03-08T01:03:08.120Z,10.90
2023-03-08T01:04:08.162Z,9.00
2023-03-08T01:05:08.099Z,11.50
2023-03-08T01:06:08.106Z,10.30
2023-03-08T01:07:08.096Z,9.80
2023-03-08T01:08:08.103Z,10.40
2023-03-08T01:09:08.047Z,10.80
2023-03-08T01:10:08.075Z,9.60
2023-03-08T01:11:08.028Z,10.00
2023-03-08T01:12:08.087Z,9.60
2023-03-08T01:13:08.015Z,9.40
2023-03-08T01:14:08.036Z,11.30
2023-03-08T01:15:08.002Z,10.70
2023-03-08T01:16:08.826Z,12.80
2023-03-08T01:17:07.988Z,11.40
2023-03-08T01:18:07.968Z,11.20
2023-03-08T01:19:07.956Z,11.70
2023-03-08T01:20:07.962Z,12.10
2023-03-08T01:21:07.929Z,11.20
2023-03-08T01:22:07.963Z,12.00
2023-03-08T01:23:07.929Z,11.20
2023-03-08T01:24:07.946Z,10.70
2023-03-08T01:25:07.877Z,10.30
2023-03-08T01:26:07.955Z,9.70
2023-03-08T01:27:07.856Z,10.10
2023-03-08T01:28:07.939Z,10.10
2023-03-08T01:29:07.836Z,10.20
2023-03-08T01:30:07.844Z,9.60
2023-03-08T01:31:07.824Z,9.40
2023-03-08T01:32:08.007Z,9.70
2023-03-08T01:33:07.801Z,9.90
2023-03-08T01:34:07.816Z,10.00
2023-03-08T01:35:07.776Z,8.80
2023-03-08T01:36:07.818Z,8.80
2023-03-08T01:37:07.771Z,8.80
2023-03-08T01:38:07.766Z,9.00
2023-03-08T01:39:07.748Z,8.20
2023-03-08T01:40:07.740Z,9.40
2023-03-08T01:41:07.755Z,8.70
2023-03-08T01:42:07.753Z,8.30
2023-03-08T01:43:07.686Z,8.80
2023-03-08T01:44:07.777Z,8.60
2023-03-08T01:45:07.680Z,8.20
2023-03-08T01:46:07.708Z,8.20
2023-03-08T01:47:07.655Z,8.70
2023-03-08T01:48:07.693Z,7.80
2023-03-08T01:49:07.647Z,7.90
2023-03-08T01:50:07.714Z,8.10
2023-03-08T01:51:07.612Z,7.20
2023-03-08T01:52:07.655Z,8.10
2023-03-08T01:53:07.584Z,7.60
2023-03-08T01:54:07.594Z,8.20
2023-03-08T01:55:07.559Z,7.80
2023-03-08T01:56:07.638Z,7.50
2023-03-08T01:57:07.539Z,8.10
2023-03-08T01:58:07.545Z,7.30
2023-03-08T01:59:07.534Z,7.70
2023-03-08T02:00:07.514Z,7.80
2023-03-08T02:01:07.559Z,7.50
2023-03-08T02:02:07.567Z,7.50
2023-03-08T02:03:07.473Z,8.20
2023-03-08T02:04:07.466Z,8.00
2023-03-08T02:05:07.455Z,7.20
2023-03-08T02:06:07.539Z,7.60
2023-03-08T02:07:07.436Z,7.20
2023-03-08T02:08:07.585Z,7.60
2023-03-08T02:09:07.426Z,8.10
2023-03-08T02:10:07.405Z,7.60
2023-03-08T02:11:07.397Z,8.00
2023-03-08T02:12:07.424Z,8.00
2023-03-08T02:13:07.385Z,7.80
2023-03-08T02:14:07.399Z,7.90
2023-03-08T02:15:07.355Z,7.60
2023-03-08T02:16:07.451Z,7.20
2023-03-08T02:17:07.331Z,7.60
2023-03-08T02:18:07.339Z,7.80
2023-03-08T02:19:07.321Z,8.20
2023-03-08T02:20:07.320Z,6.80
2023-03-08T02:21:07.291Z,7.60
2023-03-08T02:22:07.321Z,7.70
2023-03-08T02:23:07.271Z,7.90
2023-03-08T02:24:07.350Z,7.70
2023-03-08T02:25:07.250Z,8.00
2023-03-08T02:26:07.293Z,7.50
2023-03-08T02:27:07.242Z,8.40
2023-03-08T02:28:07.296Z,7.50
2023-03-08T02:29:07.214Z,8.10
2023-03-08T02:30:07.272Z,8.90
2023-03-08T02:31:07.191Z,8.00
2023-03-08T02:32:07.327Z,8.30
2023-03-08T02:33:07.167Z,8.60
2023-03-08T02:34:07.230Z,8.60
2023-03-08T02:35:07.142Z,8.60
2023-03-08T02:36:07.347Z,8.40
2023-03-08T02:37:07.136Z,8.10
2023-03-08T02:38:07.189Z,8.60
2023-03-08T02:39:07.108Z,8.10
2023-03-08T02:40:07.086Z,8.70
2023-03-08T02:41:07.081Z,8.20
2023-03-08T02:42:07.363Z,8.40
2023-03-08T02:43:07.072Z,8.50
2023-03-08T02:44:07.072Z,8.30
2023-03-08T02:45:07.035Z,8.50
2023-03-08T02:46:07.058Z,9.60
2023-03-08T02:47:07.014Z,8.60
2023-03-08T02:48:07.105Z,9.00
2023-03-08T02:49:06.995Z,9.00
2023-03-08T02:50:07.109Z,9.00
2023-03-08T02:51:06.972Z,8.40
2023-03-08T02:52:06.989Z,9.00
2023-03-08T02:53:06.982Z,9.00
2023-03-08T02:54:07.101Z,9.60
2023-03-08T02:55:06.932Z,8.80
2023-03-08T02:56:06.972Z,9.60
2023-03-08T02:57:06.912Z,9.00
2023-03-08T02:58:06.945Z,9.10
2023-03-08T02:59:06.900Z,8.70
2023-03-08T03:00:06.891Z,9.00
2023-03-08T03:01:06.899Z,9.30
2023-03-08T03:02:06.910Z,9.50
2023-03-08T03:03:06.864Z,8.80
2023-03-08T03:04:06.852Z,9.20
2023-03-08T03:05:06.832Z,9.30
2023-03-08T03:06:06.857Z,9.10
2023-03-08T03:07:06.812Z,9.10
2023-03-08T03:08:06.844Z,9.60
2023-03-08T03:09:06.792Z,8.80
2023-03-08T03:10:06.856Z,8.70
2023-03-08T03:11:06.762Z,8.80
2023-03-08T03:12:06.783Z,9.70
2023-03-08T03:13:06.758Z,8.70
2023-03-08T03:14:06.758Z,9.90
2023-03-08T03:15:06.731Z,9.80
2023-03-08T03:16:06.868Z,10.20
2023-03-08T03:17:06.699Z,9.40
2023-03-08T03:18:06.806Z,9.20
2023-03-08T03:19:06.688Z,9.50
2023-03-08T03:20:06.694Z,9.50
2023-03-08T03:21:06.651Z,9.60
2023-03-08T03:22:06.921Z,10.10
2023-03-08T03:23:06.645Z,10.00
2023-03-08T03:24:06.649Z,10.00
2023-03-08T03:25:06.612Z,10.00
2023-03-08T03:26:06.626Z,10.90
2023-03-08T03:27:06.616Z,11.20
2023-03-08T03:28:06.590Z,11.00
2023-03-08T03:29:06.566Z,10.50
2023-03-08T03:30:06.585Z,10.90
2023-03-08T03:31:06.570Z,11.90
2023-03-08T03:32:06.596Z,11.50
2023-03-08T03:33:06.529Z,11.40
2023-03-08T03:34:06.603Z,12.10
2023-03-08T03:35:06.497Z,11.50
2023-03-08T03:36:06.527Z,11.40
2023-03-08T03:37:06.476Z,11.50
2023-03-08T03:38:06.533Z,10.90
2023-03-08T03:39:06.571Z,11.20
2023-03-08T03:40:06.496Z,11.50
2023-03-08T03:41:06.434Z,11.80
2023-03-08T03:42:06.448Z,11.50
2023-03-08T03:43:06.427Z,11.60
2023-03-08T03:44:06.524Z,11.40
2023-03-08T03:45:06.385Z,12.20
2023-03-08T03:46:06.472Z,11.80
2023-03-08T03:47:06.369Z,12.00
2023-03-08T03:48:06.424Z,12.30
2023-03-08T03:49:06.356Z,12.80
2023-03-08T03:50:06.355Z,14.00
2023-03-08T03:51:06.338Z,14.30
2023-03-08T03:52:06.372Z,14.60
2023-03-08T03:53:06.321Z,14.60
2023-03-08T03:54:07.397Z,13.30
2023-03-08T03:55:06.293Z,14.50
2023-03-08T03:56:06.293Z,14.50
2023-03-08T03:57:06.273Z,13.50
2023-03-08T03:58:06.354Z,13.60
2023-03-08T03:59:06.242Z,14.40
2023-03-08T04:00:06.277Z,12.80
2023-03-08T04:01:06.225Z,13.20
2023-03-08T04:02:06.232Z,14.10
2023-03-08T04:03:06.423Z,14.20
2023-03-08T04:04:06.407Z,14.00
2023-03-08T04:05:06.201Z,14.20
2023-03-08T04:06:06.184Z,14.60
2023-03-08T04:07:06.168Z,14.80
2023-03-08T04:08:06.256Z,15.20
2023-03-08T04:09:06.144Z,16.20
2023-03-08T04:10:06.155Z,15.10
2023-03-08T04:11:06.127Z,16.20
2023-03-08T04:12:06.218Z,14.90
2023-03-08T04:13:06.108Z,16.10
2023-03-08T04:14:06.110Z,15.20
2023-03-08T04:15:06.093Z,15.70
2023-03-08T04:16:06.201Z,15.60
2023-03-08T04:17:06.057Z,15.70
2023-03-08T04:18:06.133Z,15.60
2023-03-08T04:19:06.037Z,15.40
2023-03-08T04:20:06.105Z,14.50
2023-03-08T04:21:06.017Z,14.40
2023-03-08T04:22:06.079Z,13.90
2023-03-08T04:23:06.013Z,13.10
2023-03-08T04:24:06.009Z,10.70
2023-03-08T04:25:05.977Z,10.80
2023-03-08T04:26:05.973Z,10.40
2023-03-08T04:27:05.948Z,10.50
2023-03-08T04:28:06.086Z,9.10
2023-03-08T04:29:06.925Z,7.80
2023-03-08T04:30:05.944Z,8.10
2023-03-08T04:31:05.969Z,7.50
2023-03-08T04:32:05.964Z,8.20
2023-03-08T04:33:05.905Z,8.30
2023-03-08T04:34:05.925Z,7.40
2023-03-08T04:35:05.932Z,7.00
2023-03-08T04:36:05.885Z,6.70
2023-03-08T04:37:05.844Z,6.90
2023-03-08T04:38:05.864Z,7.00
2023-03-08T04:39:05.822Z,5.40
2023-03-08T04:40:05.932Z,5.70
2023-03-08T04:41:05.836Z,5.20
2023-03-08T04:42:06.002Z,4.90
2023-03-08T04:43:05.806Z,4.80
2023-03-08T04:44:05.775Z,5.30
2023-03-08T04:45:05.767Z,4.80
2023-03-08T04:46:05.784Z,5.40
2023-03-08T04:47:05.807Z,5.40
2023-03-08T04:48:05.960Z,8.90
2023-03-08T04:49:05.728Z,4.10
2023-03-08T04:50:05.731Z,4.80
2023-03-08T04:51:05.695Z,5.30
2023-03-08T04:52:05.743Z,5.20
2023-03-08T04:53:05.695Z,4.80
2023-03-08T04:54:05.716Z,4.60
2023-03-08T04:55:05.720Z,4.10
2023-03-08T04:56:05.636Z,4.70
2023-03-08T04:57:05.641Z,4.80
2023-03-08T04:58:05.666Z,6.30
2023-03-08T04:59:05.621Z,7.40
2023-03-08T05:00:05.901Z,6.30
2023-03-08T05:01:05.588Z,6.60
2023-03-08T05:02:05.859Z,6.90
2023-03-08T05:03:06.089Z,6.90
2023-03-08T05:04:05.557Z,6.70
2023-03-08T05:05:05.613Z,6.50
2023-03-08T05:06:05.559Z,6.60
2023-03-08T05:07:05.526Z,6.40
2023-03-08T05:08:05.546Z,7.00
2023-03-08T05:09:05.547Z,7.60
2023-03-08T05:10:05.500Z,7.70
2023-03-08T05:11:05.490Z,7.40
2023-03-08T05:12:05.675Z,7.50
2023-03-08T05:13:05.476Z,8.00
2023-03-08T05:14:05.456Z,8.80
2023-03-08T05:15:05.514Z,8.60
2023-03-08T05:16:05.531Z,9.60
2023-03-08T05:17:05.431Z,9.80
2023-03-08T05:18:05.453Z,9.40
2023-03-08T05:19:05.413Z,10.00
2023-03-08T05:20:05.429Z,10.50
2023-03-08T05:21:05.402Z,11.30
2023-03-08T05:22:05.403Z,11.10
2023-03-08T05:23:05.391Z,11.20
2023-03-08T05:24:05.348Z,10.90
2023-03-08T05:25:05.398Z,11.40
2023-03-08T05:26:05.797Z,11.00
2023-03-08T05:27:05.333Z,11.10
2023-03-08T05:28:05.351Z,11.00
2023-03-08T05:29:05.299Z,10.80
2023-03-08T05:30:05.713Z,10.20
2023-03-08T05:31:05.269Z,10.60
2023-03-08T05:32:05.969Z,11.00
2023-03-08T05:33:05.282Z,10.00
2023-03-08T05:34:05.242Z,10.40
2023-03-08T05:35:05.237Z,11.00
2023-03-08T05:36:05.259Z,10.50
2023-03-08T05:37:05.207Z,11.10
2023-03-08T05:38:05.277Z,11.40
2023-03-08T05:39:05.275Z,10.60
2023-03-08T05:40:05.196Z,11.30
2023-03-08T05:41:05.168Z,10.60
2023-03-08T05:42:05.156Z,11.10
2023-03-08T05:43:05.175Z,11.00
2023-03-08T05:44:05.163Z,10.90
2023-03-08T05:45:05.183Z,11.10
2023-03-08T05:46:05.256Z,11.50
2023-03-08T05:47:05.205Z,11.20
2023-03-08T05:48:05.109Z,11.70
2023-03-08T05:49:05.147Z,11.40
2023-03-08T05:50:05.066Z,11.50
2023-03-08T05:51:05.073Z,11.30
2023-03-08T05:52:05.045Z,11.20
2023-03-08T05:53:05.064Z,11.60
2023-03-08T05:54:05.044Z,11.60
2023-03-08T05:55:05.017Z,11.30
2023-03-08T05:56:05.089Z,11.60
2023-03-08T05:57:05.044Z,11.70
2023-03-08T05:58:04.993Z,11.50
2023-03-08T05:59:04.987Z,12.20
2023-03-08T06:00:04.965Z,12.60
2023-03-08T06:01:04.964Z,11.90
2023-03-08T06:02:05.009Z,11.80
2023-03-08T06:03:04.991Z,12.80
2023-03-08T06:04:04.980Z,11.90
2023-03-08T06:05:04.934Z,13.30
2023-03-08T06:06:05.019Z,12.60
2023-03-08T06:07:05.201Z,12.90
2023-03-08T06:08:04.899Z,13.30
2023-03-08T06:09:04.892Z,13.50
2023-03-08T06:10:04.948Z,14.40
2023-03-08T06:11:04.858Z,14.20
2023-03-08T06:12:04.854Z,14.50
2023-03-08T06:13:04.875Z,14.40
2023-03-08T06:14:04.872Z,14.90
2023-03-08T06:15:04.811Z,13.70
2023-03-08T06:16:04.801Z,14.60
2023-03-08T06:17:04.882Z,14.80
2023-03-08T06:18:04.774Z,14.60
2023-03-08T06:19:04.748Z,15.20
2023-03-08T06:20:04.806Z,14.90
2023-03-08T06:21:04.752Z,15.60
2023-03-08T06:22:04.725Z,15.20
2023-03-08T06:23:04.720Z,15.40
2023-03-08T06:24:04.725Z,14.70
2023-03-08T06:25:04.688Z,14.80
2023-03-08T06:26:05.158Z,15.10
2023-03-08T06:27:04.772Z,14.90
2023-03-08T06:28:04.672Z,15.50
2023-03-08T06:29:04.666Z,14.70
2023-03-08T06:30:04.678Z,15.30
2023-03-08T06:31:04.712Z,15.00
2023-03-08T06:32:05.714Z,15.10
2023-03-08T06:33:04.645Z,15.10
2023-03-08T06:34:04.614Z,14.90
2023-03-08T06:35:04.709Z,15.60
2023-03-08T06:36:04.670Z,14.30
2023-03-08T06:37:04.566Z,14.90
2023-03-08T06:38:04.632Z,14.30
2023-03-08T06:39:04.557Z,14.90
2023-03-08T06:40:04.536Z,14.70
2023-03-08T06:41:04.548Z,13.50
2023-03-08T06:42:04.569Z,13.20
2023-03-08T06:43:04.513Z,13.20
2023-03-08T06:44:04.555Z,14.20
2023-03-08T06:45:04.481Z,13.90
2023-03-08T06:46:04.657Z,14.00
2023-03-08T06:47:04.482Z,13.20
2023-03-08T06:48:04.520Z,13.00
2023-03-08T06:49:04.448Z,12.40
2023-03-08T06:50:04.534Z,13.00
2023-03-08T06:51:04.425Z,13.40
2023-03-08T06:52:04.409Z,12.60
2023-03-08T06:53:04.419Z,13.50
2023-03-08T06:54:04.429Z,12.70
2023-03-08T06:55:04.381Z,14.10
2023-03-08T06:56:04.381Z,13.50
2023-03-08T06:57:06.440Z,13.00
2023-03-08T06:58:04.370Z,13.50
2023-03-08T06:59:04.332Z,12.90
2023-03-08T07:00:04.348Z,12.50
2023-03-08T07:01:04.440Z,13.60
2023-03-08T07:02:04.406Z,13.70
2023-03-08T07:03:04.297Z,12.80
2023-03-08T07:04:04.326Z,12.80
2023-03-08T07:05:04.282Z,13.00
2023-03-08T07:06:04.342Z,12.40
2023-03-08T07:07:04.335Z,12.80
2023-03-08T07:08:04.271Z,13.20
2023-03-08T07:09:04.228Z,12.90
2023-03-08T07:10:04.258Z,13.20
2023-03-08T07:11:04.213Z,12.60
2023-03-08T07:12:05.252Z,12.20
2023-03-08T07:13:04.182Z,12.70
2023-03-08T07:14:04.210Z,13.10
2023-03-08T07:15:04.167Z,13.30
2023-03-08T07:16:04.205Z,12.80
2023-03-08T07:17:04.161Z,13.30
2023-03-08T07:18:04.178Z,13.60
2023-03-08T07:19:04.137Z,13.40
2023-03-08T07:20:04.118Z,13.20
2023-03-08T07:21:04.116Z,12.80
2023-03-08T07:22:04.143Z,13.60
2023-03-08T07:23:04.095Z,13.40
2023-03-08T07:24:04.140Z,13.80
2023-03-08T07:25:04.056Z,13.00
2023-03-08T07:26:04.080Z,13.40
2023-03-08T07:27:04.058Z,13.80
2023-03-08T07:28:04.266Z,13.30
2023-03-08T07:29:04.044Z,13.40
2023-03-08T07:30:04.031Z,13.20
2023-03-08T07:31:03.995Z,13.20
2023-03-08T07:32:04.082Z,13.20
2023-03-08T07:33:04.085Z,13.50
2023-03-08T07:34:03.989Z,13.70
2023-03-08T07:35:03.975Z,13.00
2023-03-08T07:36:04.075Z,13.20
2023-03-08T07:37:03.936Z,13.00
2023-03-08T07:38:03.926Z,13.60
2023-03-08T07:39:03.939Z,13.20
2023-03-08T07:40:03.954Z,13.60
2023-03-08T07:41:03.902Z,13.20
2023-03-08T07:42:03.952Z,13.50
2023-03-08T07:43:03.871Z,13.20
2023-03-08T07:44:03.881Z,13.30
2023-03-08T07:45:03.858Z,13.00
2023-03-08T07:46:03.936Z,14.30
2023-03-08T07:47:03.846Z,14.50
2023-03-08T07:48:03.944Z,14.10
2023-03-08T07:49:03.820Z,14.00
2023-03-08T07:50:03.851Z,13.70
2023-03-08T07:51:03.791Z,13.70
2023-03-08T07:52:03.800Z,14.20
2023-03-08T07:53:03.769Z,14.40
2023-03-08T07:54:03.791Z,14.00
2023-03-08T07:55:03.774Z,14.50
2023-03-08T07:56:03.766Z,14.60
2023-03-08T07:57:03.722Z,14.20
2023-03-08T07:58:03.739Z,13.80
2023-03-08T07:59:03.711Z,14.00
2023-03-08T08:00:03.737Z,13.90
2023-03-08T08:01:03.680Z,13.90
2023-03-08T08:02:03.742Z,14.70
2023-03-08T08:03:03.722Z,14.80
2023-03-08T08:04:03.859Z,13.90
2023-03-08T08:05:03.686Z,14.90
2023-03-08T08:06:04.226Z,15.00
2023-03-08T08:07:05.125Z,15.30
2023-03-08T08:08:03.630Z,13.20
2023-03-08T08:09:03.612Z,14.90
2023-03-08T08:10:03.618Z,14.30
2023-03-08T08:11:03.581Z,14.80
2023-03-08T08:12:03.614Z,14.60
2023-03-08T08:13:03.556Z,14.20
2023-03-08T08:14:03.677Z,14.70
2023-03-08T08:15:03.603Z,14.50
2023-03-08T08:16:03.723Z,14.00
2023-03-08T08:17:03.524Z,14.80
2023-03-08T08:18:03.504Z,14.00
2023-03-08T08:19:03.541Z,14.00
2023-03-08T08:20:03.619Z,14.10
2023-03-08T08:21:03.498Z,14.10
2023-03-08T08:22:03.532Z,13.80
2023-03-08T08:23:03.448Z,14.40
2023-03-08T08:24:03.538Z,14.70
2023-03-08T08:25:03.429Z,14.20
2023-03-08T08:26:03.428Z,14.20
2023-03-08T08:27:03.412Z,13.90
2023-03-08T08:28:03.555Z,14.00
2023-03-08T08:29:03.413Z,13.60
2023-03-08T08:30:03.412Z,13.40
2023-03-08T08:31:03.404Z,14.60
2023-03-08T08:32:03.383Z,14.00
2023-03-08T08:33:03.342Z,13.60
2023-03-08T08:34:03.362Z,14.10
2023-03-08T08:35:03.320Z,13.40
2023-03-08T08:36:03.488Z,13.90
2023-03-08T08:37:03.341Z,13.80
2023-03-08T08:38:03.329Z,14.00
2023-03-08T08:39:03.297Z,14.00
2023-03-08T08:40:03.280Z,14.10
2023-03-08T08:41:03.281Z,13.90
2023-03-08T08:42:03.240Z,13.60
2023-03-08T08:43:03.228Z,13.80
2023-03-08T08:44:03.301Z,13.60
2023-03-08T08:45:03.218Z,13.60
2023-03-08T08:46:03.211Z,14.30
2023-03-08T08:47:03.208Z,13.70
2023-03-08T08:48:03.202Z,14.70
2023-03-08T08:49:03.181Z,14.50
2023-03-08T08:50:03.211Z,14.50
2023-03-08T08:51:03.147Z,14.30
2023-03-08T08:52:03.143Z,14.10
2023-03-08T08:53:03.211Z,15.20
2023-03-08T08:54:03.277Z,14.40
2023-03-08T08:55:03.117Z,14.70
2023-03-08T08:56:03.100Z,14.40
2023-03-08T08:57:03.090Z,15.20
2023-03-08T08:58:03.127Z,14.50
2023-03-08T08:59:03.107Z,14.70
2023-03-08T09:00:03.167Z,14.20
2023-03-08T09:01:03.043Z,13.70
2023-03-08T09:02:03.132Z,14.70
2023-03-08T09:03:03.027Z,14.70
2023-03-08T09:04:03.039Z,14.20
2023-03-08T09:05:03.078Z,14.00
2023-03-08T09:06:02.990Z,14.70
2023-03-08T09:07:02.998Z,13.90
2023-03-08T09:08:02.962Z,14.70
2023-03-08T09:09:02.989Z,14.40
2023-03-08T09:10:02.942Z,14.80
2023-03-08T09:11:02.947Z,14.70
2023-03-08T09:12:02.947Z,15.10
2023-03-08T09:13:02.928Z,14.70
2023-03-08T09:14:02.959Z,14.80
2023-03-08T09:15:02.899Z,14.20
2023-03-08T09:16:02.992Z,13.70
2023-03-08T09:17:02.890Z,14.20
2023-03-08T09:18:02.873Z,14.70
2023-03-08T09:19:02.859Z,14.10
2023-03-08T09:20:02.925Z,14.60
2023-03-08T09:21:02.861Z,14.20
2023-03-08T09:22:02.828Z,14.50
2023-03-08T09:23:02.885Z,14.20
2023-03-08T09:24:02.828Z,14.20
2023-03-08T09:25:02.794Z,14.60
2023-03-08T09:26:02.832Z,14.20
2023-03-08T09:27:02.836Z,14.80
2023-03-08T09:28:02.783Z,14.40
2023-03-08T09:29:02.789Z,14.10
2023-03-08T09:30:02.791Z,14.20
2023-03-08T09:31:02.739Z,14.90
2023-03-08T09:32:03.359Z,14.40
2023-03-08T09:33:02.729Z,14.40
2023-03-08T09:34:02.809Z,14.30
2023-03-08T09:35:02.694Z,14.80
2023-03-08T09:36:02.924Z,14.80
2023-03-08T09:37:02.667Z,14.80
2023-03-08T09:38:02.721Z,14.80
2023-03-08T09:39:02.662Z,14.40
2023-03-08T09:40:02.769Z,14.30
2023-03-08T09:41:02.629Z,14.20
2023-03-08T09:42:02.683Z,14.60
2023-03-08T09:43:02.617Z,14.30
2023-03-08T09:44:02.607Z,14.70
2023-03-08T09:45:02.579Z,14.20
2023-03-08T09:46:02.830Z,15.10
2023-03-08T09:47:02.570Z,14.90
2023-03-08T09:48:02.664Z,14.70
2023-03-08T09:49:02.550Z,14.60
2023-03-08T09:50:02.539Z,15.20
2023-03-08T09:51:02.522Z,14.40
2023-03-08T09:52:02.615Z,14.70
2023-03-08T09:53:02.507Z,15.00
2023-03-08T09:54:02.560Z,14.40
2023-03-08T09:55:02.524Z,14.70
2023-03-08T09:56:02.472Z,15.30
2023-03-08T09:57:02.450Z,15.60
2023-03-08T09:58:02.555Z,15.80
2023-03-08T09:59:02.493Z,15.70
2023-03-08T10:00:02.467Z,15.30
2023-03-08T10:01:02.432Z,16.00
2023-03-08T10:02:02.410Z,15.80
2023-03-08T10:03:02.422Z,14.70
2023-03-08T10:04:02.469Z,16.50
2023-03-08T10:05:12.922Z,15.50
2023-03-08T10:06:03.533Z,16.60
2023-03-08T10:07:02.336Z,15.80
2023-03-08T10:08:02.334Z,16.20
2023-03-08T10:09:02.336Z,15.40
2023-03-08T10:10:02.387Z,16.10
2023-03-08T10:11:02.309Z,15.90
2023-03-08T10:12:02.428Z,15.70
2023-03-08T10:13:02.273Z,15.50
2023-03-08T10:14:02.309Z,14.50
2023-03-08T10:15:02.344Z,15.80
2023-03-08T10:16:02.268Z,15.20
2023-03-08T10:17:02.299Z,14.80
2023-03-08T10:18:02.311Z,14.90
2023-03-08T10:19:02.238Z,14.90
2023-03-08T10:20:02.204Z,14.30
2023-03-08T10:21:02.193Z,15.60
2023-03-08T10:22:02.216Z,14.50
2023-03-08T10:23:02.169Z,14.40
2023-03-08T10:24:02.212Z,14.90
2023-03-08T10:25:02.170Z,15.80
2023-03-08T10:26:02.168Z,14.70
2023-03-08T10:27:04.463Z,15.50
2023-03-08T10:28:02.154Z,14.40
2023-03-08T10:29:02.126Z,14.80
2023-03-08T10:30:02.195Z,14.90
2023-03-08T10:31:02.218Z,14.80
2023-03-08T10:32:02.103Z,14.90
2023-03-08T10:33:02.164Z,15.70
2023-03-08T10:34:02.106Z,14.90
2023-03-08T10:35:02.064Z,14.80
2023-03-08T10:36:02.194Z,15.00
2023-03-08T10:37:02.119Z,15.30
2023-03-08T10:38:02.013Z,15.40
2023-03-08T10:39:04.595Z,14.50
2023-03-08T10:40:01.987Z,14.90
2023-03-08T10:41:02.071Z,15.10
2023-03-08T10:42:01.974Z,14.90
2023-03-08T10:43:01.950Z,15.40
2023-03-08T10:44:02.002Z,15.00
2023-03-08T10:45:01.934Z,14.80
2023-03-08T10:46:02.329Z,15.00
2023-03-08T10:47:01.917Z,15.20
2023-03-08T10:48:01.982Z,15.30
2023-03-08T10:49:01.891Z,15.20
2023-03-08T10:50:01.920Z,15.40
2023-03-08T10:51:01.953Z,14.80
2023-03-08T10:52:01.870Z,15.50
2023-03-08T10:53:01.842Z,14.40
2023-03-08T10:54:01.881Z,15.10
2023-03-08T10:55:01.856Z,14.70
2023-03-08T10:56:01.890Z,14.30
2023-03-08T10:57:01.824Z,15.00
2023-03-08T10:58:01.828Z,15.20
2023-03-08T10:59:01.803Z,14.20
2023-03-08T11:00:01.792Z,15.20
2023-03-08T11:01:01.756Z,14.70
2023-03-08T11:02:01.900Z,15.50
2023-03-08T11:03:01.751Z,14.60
2023-03-08T11:04:01.814Z,15.70
2023-03-08T11:05:01.837Z,14.90
2023-03-08T11:06:01.710Z,15.20
2023-03-08T11:07:01.726Z,14.60
2023-03-08T11:08:01.692Z,14.30
2023-03-08T11:09:01.683Z,14.20
2023-03-08T11:10:01.700Z,14.90
2023-03-08T11:11:01.693Z,14.30
2023-03-08T11:12:01.645Z,14.50
2023-03-08T11:13:01.649Z,15.00
2023-03-08T11:14:01.637Z,14.10
2023-03-08T11:15:01.603Z,13.90
2023-03-08T11:16:01.722Z,14.20
2023-03-08T11:17:01.592Z,14.60
2023-03-08T11:18:01.599Z,14.60
2023-03-08T11:19:01.578Z,14.20
2023-03-08T11:20:01.659Z,14.40
2023-03-08T11:21:01.551Z,14.50
2023-03-08T11:22:01.533Z,15.20
2023-03-08T11:23:01.515Z,15.20
2023-03-08T11:24:01.640Z,14.70
2023-03-08T11:25:01.504Z,15.20
2023-03-08T11:26:01.524Z,14.60
2023-03-08T11:27:01.537Z,15.10
2023-03-08T11:28:01.663Z,15.20
2023-03-08T11:29:01.571Z,14.50
2023-03-08T11:30:01.455Z,15.50
2023-03-08T11:31:01.437Z,15.60
2023-03-08T11:32:01.470Z,15.00
2023-03-08T11:33:01.525Z,15.60
2023-03-08T11:34:01.490Z,15.20
2023-03-08T11:35:01.388Z,15.80
2023-03-08T11:36:01.432Z,14.80
2023-03-08T11:37:01.365Z,14.90
2023-03-08T11:38:01.368Z,15.20
2023-03-08T11:39:01.368Z,15.10
2023-03-08T11:40:01.365Z,14.50
2023-03-08T11:41:01.328Z,14.90
2023-03-08T11:42:01.323Z,14.50
2023-03-08T11:43:01.307Z,15.40
2023-03-08T11:44:01.316Z,14.30
2023-03-08T11:45:01.295Z,15.60
2023-03-08T11:46:01.269Z,14.60
2023-03-08T11:47:01.269Z,15.20
2023-03-08T11:48:01.241Z,15.00
2023-03-08T11:49:01.273Z,13.40
2023-03-08T11:50:01.221Z,14.10
2023-03-08T11:51:01.217Z,13.80
2023-03-08T11:52:01.202Z,14.40
2023-03-08T11:53:01.202Z,13.20
2023-03-08T11:54:01.197Z,14.60
2023-03-08T11:55:01.244Z,14.40
2023-03-08T11:56:01.158Z,15.10
2023-03-08T11:57:01.158Z,14.20
2023-03-08T11:58:01.143Z,13.40
2023-03-08T11:59:01.151Z,13.70
2023-03-08T12:00:01.117Z,12.70
2023-03-08T12:01:01.107Z,12.90
2023-03-08T12:02:01.089Z,12.90
2023-03-08T12:03:01.088Z,13.10
2023-03-08T12:04:04.047Z,11.60
2023-03-08T12:05:01.163Z,12.50
2023-03-08T12:06:01.131Z,12.70
2023-03-08T12:07:01.144Z,13.20
2023-03-08T12:08:01.079Z,13.30
2023-03-08T12:09:01.085Z,13.40
2023-03-08T12:10:01.048Z,13.10
2023-03-08T12:11:00.992Z,13.50
2023-03-08T12:12:03.330Z,12.90
2023-03-08T12:13:00.972Z,12.00
2023-03-08T12:14:00.969Z,12.10
2023-03-08T12:15:00.971Z,11.00
2023-03-08T12:16:00.959Z,10.80
2023-03-08T12:17:01.058Z,10.50
2023-03-08T12:18:00.917Z,10.90
2023-03-08T12:19:00.908Z,10.60
2023-03-08T12:20:00.901Z,10.20
2023-03-08T12:21:00.882Z,9.50
2023-03-08T12:22:00.870Z,10.00
2023-03-08T12:23:00.943Z,9.20
2023-03-08T12:24:03.854Z,9.90
2023-03-08T12:25:00.840Z,10.00
2023-03-08T12:26:00.820Z,9.80
2023-03-08T12:27:00.810Z,9.60
2023-03-08T12:28:00.843Z,9.60
2023-03-08T12:29:00.812Z,9.60
2023-03-08T12:30:00.772Z,10.30
2023-03-08T12:31:00.891Z,10.00
2023-03-08T12:32:00.870Z,10.00
2023-03-08T12:33:00.956Z,10.60
2023-03-08T12:34:00.780Z,10.90
2023-03-08T12:35:00.726Z,10.40
2023-03-08T12:36:00.799Z,10.30
2023-03-08T12:37:00.705Z,10.30
2023-03-08T12:38:00.758Z,10.70
2023-03-08T12:39:00.729Z,10.30
2023-03-08T12:40:00.684Z,11.00
2023-03-08T12:41:00.668Z,11.20
2023-03-08T12:42:00.662Z,11.00
2023-03-08T12:43:00.640Z,10.30
2023-03-08T12:44:00.658Z,10.50
2023-03-08T12:45:00.628Z,9.80
2023-03-08T12:46:00.757Z,10.30
2023-03-08T12:47:03.883Z,9.90
2023-03-08T12:48:00.615Z,9.80
2023-03-08T12:49:00.671Z,9.60
2023-03-08T12:50:00.584Z,9.50
2023-03-08T12:51:00.676Z,9.30
2023-03-08T12:52:00.542Z,9.10
2023-03-08T12:53:00.533Z,8.90
2023-03-08T12:54:00.550Z,9.40
2023-03-08T12:55:00.547Z,8.70
2023-03-08T12:56:00.502Z,9.00
2023-03-08T12:57:00.495Z,9.10
2023-03-08T12:58:00.492Z,9.20
2023-03-08T12:59:00.486Z,9.50
2023-03-08T13:00:00.495Z,9.10